Time;durP1;ratioP1;P1;durP2;ratioP2;P2;SDS_P1;SDS_P2;PMS_P1;PMS_P2;Temp;Humidity;BMP_temperature;BMP_pressure;BME280_temperature;BME280_humidity;BME280_pressure;Samples;Min_cycle;Max_cycle;Signal;HPM_P1;HPM_P2
2022/04/09 00:02:05;;;;;;;;;;;18.50;52.00;;;;;;4957187;28;19937;-59
2022/04/09 00:04:31;;;;;;;;;;;18.50;51.90;;;;;;4959860;28;19969;-59
2022/04/09 00:06:56;;;;;;;;;;;18.50;51.90;;;;;;4951363;28;19953;-59
2022/04/09 00:09:22;;;;;;;;;;;18.50;51.90;;;;;;4960202;28;20387;-59
2022/04/09 00:11:47;;;;;;;;;;;18.50;51.90;;;;;;4950487;28;20399;-60
2022/04/09 00:14:13;;;;;;;;;;;18.50;51.90;;;;;;4960483;28;20288;-59
2022/04/09 00:16:41;;;;;;;;;;;18.50;51.90;;;;;;4949275;28;19948;-58
2022/04/09 00:19:06;;;;;;;;;;;18.40;51.90;;;;;;4959334;28;19918;-60
2022/04/09 00:21:32;;;;;;;;;;;18.40;51.90;;;;;;4951602;28;19984;-59
2022/04/09 00:23:58;;;;;;;;;;;18.40;51.90;;;;;;4962239;28;19928;-60
2022/04/09 00:26:23;;;;;;;;;;;18.40;52.00;;;;;;4937950;28;19914;-59
2022/04/09 00:28:49;;;;;;;;;;;18.40;52.00;;;;;;4962887;28;19914;-60
2022/04/09 00:31:14;;;;;;;;;;;18.30;51.90;;;;;;4961908;28;20010;-59
2022/04/09 00:33:39;;;;;;;;;;;18.30;51.90;;;;;;4957442;28;20552;-59
2022/04/09 00:36:05;;;;;;;;;;;18.30;51.90;;;;;;4963153;28;19914;-59
2022/04/09 00:38:30;;;;;;;;;;;18.30;52.00;;;;;;5017274;22;20024;-73
2022/04/09 00:40:56;;;;;;;;;;;18.30;51.90;;;;;;5024735;28;20195;-71
2022/04/09 00:43:21;;;;;;;;;;;18.40;51.90;;;;;;5026774;28;19913;-73
2022/04/09 00:45:50;;;;;;;;;;;18.30;51.90;;;;;;5025686;28;19917;-73
2022/04/09 00:48:16;;;;;;;;;;;18.30;51.90;;;;;;5006316;28;19968;-73
2022/04/09 00:50:42;;;;;;;;;;;18.30;52.10;;;;;;5006712;28;19917;-73
2022/04/09 00:53:07;;;;;;;;;;;18.20;52.00;;;;;;5023550;28;20440;-73
2022/04/09 00:58:17;;;;;;;;;;;18.20;52.20;;;;;;5005488;28;20013;-73
2022/04/09 01:00:43;;;;;;;;;;;18.10;52.00;;;;;;5006407;28;19914;-72
2022/04/09 01:03:11;;;;;;;;;;;18.10;52.30;;;;;;5022168;28;20569;-73
2022/04/09 01:05:37;;;;;;;;;;;18.10;52.30;;;;;;5025546;28;19929;-73
2022/04/09 01:08:03;;;;;;;;;;;18.00;52.30;;;;;;5009746;28;19914;-73
2022/04/09 01:10:28;;;;;;;;;;;18.10;52.20;;;;;;5006046;28;19914;-73
2022/04/09 01:12:54;;;;;;;;;;;18.10;52.20;;;;;;5019092;28;20440;-73
2022/04/09 01:15:19;;;;;;;;;;;18.10;52.10;;;;;;5026173;28;19913;-72
2022/04/09 01:17:45;;;;;;;;;;;18.10;52.30;;;;;;5012684;28;19921;-73
2022/04/09 01:20:14;;;;;;;;;;;18.10;52.20;;;;;;5006461;28;19920;-72
2022/04/09 01:22:39;;;;;;;;;;;18.10;52.10;;;;;;5016698;28;19963;-72
2022/04/09 01:25:05;;;;;;;;;;;18.00;52.20;;;;;;5026291;28;19921;-72
2022/04/09 01:27:30;;;;;;;;;;;18.10;52.20;;;;;;5018289;28;19914;-73
2022/04/09 01:29:56;;;;;;;;;;;18.00;52.30;;;;;;5006159;28;19944;-73
2022/04/09 01:32:21;;;;;;;;;;;18.10;52.30;;;;;;5013693;28;20519;-73
2022/04/09 01:34:47;;;;;;;;;;;18.10;52.10;;;;;;5024528;28;19948;-72
2022/04/09 01:37:14;;;;;;;;;;;18.00;52.10;;;;;;5019472;28;19914;-73
2022/04/09 01:39:39;;;;;;;;;;;18.10;52.20;;;;;;5006026;28;20414;-73
2022/04/09 01:42:10;;;;;;;;;;;18.10;52.10;;;;;;5007436;28;19921;-73
2022/04/09 01:44:36;;;;;;;;;;;18.00;52.20;;;;;;5024641;28;19925;-72
2022/04/09 01:47:01;;;;;;;;;;;18.10;52.10;;;;;;5022198;28;19999;-73
2022/04/09 01:49:26;;;;;;;;;;;18.00;52.20;;;;;;5004943;28;19913;-71
2022/04/09 01:51:52;;;;;;;;;;;18.00;52.20;;;;;;5006146;28;19914;-72
2022/04/09 01:54:17;;;;;;;;;;;18.00;52.30;;;;;;5024780;28;19921;-73
2022/04/09 01:56:43;;;;;;;;;;;17.90;52.30;;;;;;5026456;28;19913;-72
2022/04/09 01:59:08;;;;;;;;;;;17.80;52.50;;;;;;5006319;28;19921;-71
2022/04/09 02:01:34;;;;;;;;;;;17.90;52.50;;;;;;5005406;28;19921;-73
2022/04/09 02:03:59;;;;;;;;;;;17.90;52.40;;;;;;5019612;28;19913;-71
2022/04/09 02:06:25;;;;;;;;;;;17.90;52.40;;;;;;5023757;28;20406;-73
2022/04/09 02:08:50;;;;;;;;;;;17.80;52.50;;;;;;5008892;28;20490;-71
2022/04/09 02:11:16;;;;;;;;;;;17.90;52.40;;;;;;5004919;28;19920;-71
2022/04/09 02:13:41;;;;;;;;;;;17.90;52.30;;;;;;5016216;28;19913;-73
2022/04/09 02:16:07;;;;;;;;;;;17.80;52.40;;;;;;5024626;28;19920;-71
2022/04/09 02:18:32;;;;;;;;;;;17.90;52.40;;;;;;5013997;28;19920;-72
2022/04/09 02:20:58;;;;;;;;;;;17.80;52.60;;;;;;5003795;28;19913;-71
2022/04/09 02:23:23;;;;;;;;;;;17.70;52.70;;;;;;5011950;28;19928;-73
2022/04/09 02:25:49;;;;;;;;;;;17.70;52.80;;;;;;5024802;28;19917;-71
2022/04/09 02:28:14;;;;;;;;;;;17.70;52.90;;;;;;5018969;28;20589;-72
2022/04/09 02:30:39;;;;;;;;;;;17.70;53.00;;;;;;5004588;28;19921;-72
2022/04/09 02:33:05;;;;;;;;;;;17.70;52.90;;;;;;5009340;28;19958;-73
2022/04/09 02:35:30;;;;;;;;;;;17.60;52.90;;;;;;5024379;28;19978;-72
2022/04/09 02:37:57;;;;;;;;;;;17.60;53.00;;;;;;5021342;28;20274;-73
2022/04/09 02:40:22;;;;;;;;;;;17.70;52.80;;;;;;5006283;28;19917;-72
2022/04/09 02:42:47;;;;;;;;;;;17.70;52.80;;;;;;5009065;28;19970;-72
2022/04/09 02:45:13;;;;;;;;;;;17.70;52.80;;;;;;5026940;28;19917;-72
2022/04/09 02:47:38;;;;;;;;;;;17.60;52.80;;;;;;5027910;28;19920;-72
2022/04/09 02:50:04;;;;;;;;;;;17.60;52.80;;;;;;5025864;28;19924;-72
2022/04/09 02:52:33;;;;;;;;;;;17.60;52.80;;;;;;5023274;28;19927;-72
2022/04/09 02:54:59;;;;;;;;;;;17.60;52.70;;;;;;5008196;28;19979;-71
2022/04/09 02:57:24;;;;;;;;;;;17.60;52.80;;;;;;5007758;28;20406;-70
2022/04/09 02:59:50;;;;;;;;;;;17.60;52.70;;;;;;5022990;28;19914;-73
2022/04/09 03:02:15;;;;;;;;;;;17.60;52.80;;;;;;5028144;28;19921;-73
2022/04/09 03:04:40;;;;;;;;;;;17.60;52.80;;;;;;4994945;28;19925;-73
2022/04/09 03:07:06;;;;;;;;;;;17.50;52.80;;;;;;5006916;28;19925;-73
2022/04/09 03:09:32;;;;;;;;;;;17.50;52.80;;;;;;5017791;28;20385;-72
2022/04/09 03:11:57;;;;;;;;;;;17.50;52.80;;;;;;5026795;28;19913;-73
2022/04/09 03:14:23;;;;;;;;;;;17.60;52.80;;;;;;5016939;28;19928;-72
2022/04/09 03:16:48;;;;;;;;;;;17.50;52.80;;;;;;5006433;28;20287;-73
2022/04/09 03:19:13;;;;;;;;;;;17.50;52.90;;;;;;5014013;28;19913;-73
2022/04/09 03:21:39;;;;;;;;;;;17.40;53.10;;;;;;5027602;28;19921;-73
2022/04/09 03:24:04;;;;;;;;;;;17.40;53.30;;;;;;5021859;28;20386;-73
2022/04/09 03:26:30;;;;;;;;;;;17.30;53.30;;;;;;5008145;28;19921;-72
2022/04/09 03:28:55;;;;;;;;;;;17.30;54.00;;;;;;5007581;28;19935;-72
2022/04/09 03:31:21;;;;;;;;;;;17.30;53.30;;;;;;5008955;28;19936;-73
2022/04/09 03:33:47;;;;;;;;;;;17.40;53.30;;;;;;5017296;28;19913;-73
2022/04/09 03:36:13;;;;;;;;;;;17.40;53.20;;;;;;5024526;28;19913;-73
2022/04/09 03:38:41;;;;;;;;;;;17.40;53.20;;;;;;5025340;28;20337;-72
2022/04/09 03:41:07;;;;;;;;;;;17.40;53.10;;;;;;5007499;28;19922;-73
2022/04/09 03:43:32;;;;;;;;;;;17.30;53.10;;;;;;5007339;28;19913;-72
2022/04/09 03:45:58;;;;;;;;;;;17.40;53.00;;;;;;5000168;28;19921;-73
2022/04/09 03:48:23;;;;;;;;;;;17.40;52.90;;;;;;5007363;28;19988;-73
2022/04/09 03:50:49;;;;;;;;;;;17.50;52.80;;;;;;5024475;28;19913;-73
2022/04/09 03:53:19;;;;;;;;;;;17.50;52.70;;;;;;5025404;28;19913;-73
2022/04/09 03:55:46;;;;;;;;;;;17.50;52.80;;;;;;5010628;28;20512;-73
2022/04/09 03:58:11;;;;;;;;;;;17.60;52.90;;;;;;5016533;28;19948;-73
2022/04/09 04:00:37;;;;;;;;;;;17.70;52.60;;;;;;5022612;28;19928;-73
2022/04/09 04:03:02;;;;;;;;;;;17.70;52.40;;;;;;5030546;28;19913;-73
2022/04/09 04:05:28;;;;;;;;;;;17.80;52.30;;;;;;5028029;28;19921;-72
2022/04/09 04:07:53;;;;;;;;;;;17.80;52.20;;;;;;5029136;28;19936;-72
2022/04/09 04:10:19;;;;;;;;;;;17.90;52.10;;;;;;5018855;28;20393;-73
2022/04/09 04:12:44;;;;;;;;;;;17.90;52.00;;;;;;5010819;28;20486;-73
2022/04/09 04:15:10;;;;;;;;;;;18.00;51.90;;;;;;5010277;28;19913;-73
2022/04/09 04:17:41;;;;;;;;;;;18.00;51.80;;;;;;5009285;28;19914;-74
2022/04/09 04:20:07;;;;;;;;;;;18.00;51.70;;;;;;5015705;28;20063;-72
2022/04/09 04:22:33;;;;;;;;;;;18.10;51.60;;;;;;5029980;28;19921;-73
2022/04/09 04:24:58;;;;;;;;;;;18.20;51.50;;;;;;5024460;28;19963;-72
2022/04/09 04:27:23;;;;;;;;;;;18.20;51.30;;;;;;5024771;22;19917;-51
2022/04/09 04:29:49;;;;;;;;;;;18.30;51.20;;;;;;5001309;28;19918;-51
2022/04/09 04:32:14;;;;;;;;;;;18.30;51.00;;;;;;5003854;28;19917;-49
2022/04/09 04:34:40;;;;;;;;;;;18.40;51.00;;;;;;5003520;28;20294;-50
2022/04/09 04:37:05;;;;;;;;;;;18.40;50.80;;;;;;5005467;28;19917;-50
2022/04/09 04:39:31;;;;;;;;;;;18.50;50.80;;;;;;5007112;28;20397;-50
2022/04/09 04:41:56;;;;;;;;;;;18.50;50.60;;;;;;5006434;28;19939;-51
2022/04/09 04:44:22;;;;;;;;;;;18.60;50.50;;;;;;4999471;28;19925;-49
2022/04/09 04:46:47;;;;;;;;;;;18.60;50.50;;;;;;5002258;28;19917;-50
2022/04/09 04:49:13;;;;;;;;;;;18.60;50.40;;;;;;5001505;28;20413;-49
2022/04/09 04:51:38;;;;;;;;;;;18.60;50.30;;;;;;5001547;28;19921;-51
2022/04/09 04:54:03;;;;;;;;;;;18.70;50.30;;;;;;5001869;28;19948;-50
2022/04/09 04:56:29;;;;;;;;;;;18.70;50.30;;;;;;5001380;28;19936;-50
2022/04/09 04:58:54;;;;;;;;;;;18.70;50.20;;;;;;5001629;28;19967;-49
2022/04/09 05:01:20;;;;;;;;;;;18.70;50.20;;;;;;5002013;28;19913;-50
2022/04/09 05:03:45;;;;;;;;;;;18.60;50.10;;;;;;5000993;28;19918;-49
2022/04/09 05:06:11;;;;;;;;;;;18.70;50.30;;;;;;5001566;28;20297;-49
2022/04/09 05:08:38;;;;;;;;;;;18.70;50.20;;;;;;5001069;28;19944;-48
2022/04/09 05:11:04;;;;;;;;;;;18.60;50.20;;;;;;5001573;28;20008;-50
2022/04/09 05:13:29;;;;;;;;;;;18.60;50.30;;;;;;5001674;28;19998;-51
2022/04/09 05:15:55;;;;;;;;;;;18.60;50.30;;;;;;5001402;28;19971;-51
2022/04/09 05:18:20;;;;;;;;;;;18.60;50.30;;;;;;5001689;28;19914;-50
2022/04/09 05:20:46;;;;;;;;;;;18.60;50.40;;;;;;5000143;28;19925;-52
2022/04/09 05:23:12;;;;;;;;;;;18.60;50.50;;;;;;5001203;28;19918;-50
2022/04/09 05:25:37;;;;;;;;;;;18.60;50.60;;;;;;5001018;28;19968;-50
2022/04/09 05:28:04;;;;;;;;;;;18.60;50.70;;;;;;5001767;28;19925;-51
2022/04/09 05:30:29;;;;;;;;;;;18.60;50.70;;;;;;4999204;28;19914;-51
2022/04/09 05:32:55;;;;;;;;;;;18.60;50.80;;;;;;5000965;28;19988;-51
2022/04/09 05:35:20;;;;;;;;;;;18.50;50.90;;;;;;5001185;28;19914;-49
2022/04/09 05:37:46;;;;;;;;;;;18.50;51.10;;;;;;4999144;28;20337;-51
2022/04/09 05:40:12;;;;;;;;;;;18.50;51.20;;;;;;4998273;28;19940;-52
2022/04/09 05:42:37;;;;;;;;;;;18.50;51.20;;;;;;4992770;28;19914;-51
2022/04/09 05:45:03;;;;;;;;;;;18.40;51.20;;;;;;4998782;28;20646;-48
2022/04/09 05:47:29;;;;;;;;;;;18.40;51.20;;;;;;4985046;28;19924;-51
2022/04/09 05:49:56;;;;;;;;;;;18.40;51.30;;;;;;4988569;28;19913;-51
2022/04/09 05:52:22;;;;;;;;;;;18.40;51.40;;;;;;4994999;28;19918;-49
2022/04/09 05:54:47;;;;;;;;;;;18.30;51.40;;;;;;4998793;28;20267;-51
2022/04/09 05:57:13;;;;;;;;;;;18.30;51.40;;;;;;4996918;28;20400;-50
2022/04/09 05:59:39;;;;;;;;;;;18.30;51.40;;;;;;4999000;28;19922;-51
2022/04/09 06:02:05;;;;;;;;;;;18.30;51.50;;;;;;4995036;28;20466;-51
2022/04/09 06:04:30;;;;;;;;;;;18.20;51.60;;;;;;4998581;28;20004;-51
2022/04/09 06:06:56;;;;;;;;;;;18.20;51.70;;;;;;4993540;28;20326;-51
2022/04/09 06:09:21;;;;;;;;;;;18.00;51.80;;;;;;4998677;28;19918;-50
2022/04/09 06:11:47;;;;;;;;;;;18.00;51.90;;;;;;4994472;28;20441;-51
2022/04/09 06:14:13;;;;;;;;;;;18.00;51.90;;;;;;4999854;28;19913;-51
2022/04/09 06:16:40;;;;;;;;;;;18.00;51.90;;;;;;4998674;28;19914;-50
2022/04/09 06:19:06;;;;;;;;;;;18.00;51.90;;;;;;4999293;28;19918;-50
2022/04/09 06:21:33;;;;;;;;;;;18.00;51.90;;;;;;5014725;28;20304;-49
2022/04/09 06:23:59;;;;;;;;;;;18.00;51.90;;;;;;4998433;28;19914;-51
2022/04/09 06:26:24;;;;;;;;;;;18.10;53.50;;;;;;4991772;28;19921;-50
2022/04/09 06:28:50;;;;;;;;;;;18.10;52.30;;;;;;4999330;28;19922;-51
2022/04/09 06:31:15;;;;;;;;;;;18.20;51.90;;;;;;4997766;28;19920;-52
2022/04/09 06:33:41;;;;;;;;;;;18.30;51.70;;;;;;4999545;28;19940;-51
2022/04/09 06:36:06;;;;;;;;;;;18.40;51.80;;;;;;4998850;28;19917;-52
2022/04/09 06:38:35;;;;;;;;;;;18.40;51.70;;;;;;5003663;22;20829;-52
2022/04/09 06:41:00;;;;;;;;;;;18.40;51.60;;;;;;5000317;28;20008;-56
2022/04/09 06:43:30;;;;;;;;;;;18.50;51.70;;;;;;5019178;28;20537;-56
2022/04/09 06:45:56;;;;;;;;;;;18.50;51.60;;;;;;5017732;28;19967;-55
2022/04/09 06:48:21;;;;;;;;;;;18.50;51.60;;;;;;5011974;28;19914;-54
2022/04/09 06:50:47;;;;;;;;;;;18.50;51.90;;;;;;5018770;28;19913;-54
2022/04/09 06:53:12;;;;;;;;;;;18.50;52.10;;;;;;5020252;28;19999;-53
2022/04/09 06:55:38;;;;;;;;;;;18.50;52.30;;;;;;5019874;28;19913;-57
2022/04/09 06:58:04;;;;;;;;;;;18.50;52.30;;;;;;5019789;28;19913;-57
2022/04/09 07:00:29;;;;;;;;;;;18.50;52.30;;;;;;5019446;28;19914;-54
2022/04/09 07:02:54;;;;;;;;;;;18.50;52.40;;;;;;5019407;28;19917;-54
2022/04/09 07:05:20;;;;;;;;;;;18.50;52.20;;;;;;5019265;28;19917;-54
2022/04/09 07:07:46;;;;;;;;;;;18.50;52.30;;;;;;5019477;28;19913;-53
2022/04/09 07:10:11;;;;;;;;;;;18.50;52.20;;;;;;5019557;28;19999;-54
2022/04/09 07:12:37;;;;;;;;;;;18.50;52.10;;;;;;5019441;28;19924;-56
2022/04/09 07:15:03;;;;;;;;;;;18.40;52.10;;;;;;5019242;28;19921;-57
2022/04/09 07:17:31;;;;;;;;;;;18.40;52.10;;;;;;5019051;28;20305;-58
2022/04/09 07:19:57;;;;;;;;;;;18.40;52.10;;;;;;5019152;28;19920;-56
2022/04/09 07:22:23;;;;;;;;;;;18.40;52.00;;;;;;5019484;28;19914;-56
2022/04/09 07:24:48;;;;;;;;;;;18.40;52.00;;;;;;5019089;28;19925;-55
2022/04/09 07:27:14;;;;;;;;;;;18.30;52.20;;;;;;5018641;28;19913;-50
2022/04/09 07:29:39;;;;;;;;;;;18.30;52.30;;;;;;5018899;28;19913;-55
2022/04/09 07:32:05;;;;;;;;;;;18.30;52.60;;;;;;5020234;28;19917;-53
2022/04/09 07:34:30;;;;;;;;;;;18.30;52.80;;;;;;5023119;28;19979;-54
2022/04/09 07:36:55;;;;;;;;;;;18.30;52.80;;;;;;5022920;28;19971;-51
2022/04/09 07:39:21;;;;;;;;;;;18.30;52.60;;;;;;5022310;28;19949;-56
2022/04/09 07:41:46;;;;;;;;;;;18.30;52.50;;;;;;5023104;28;19920;-58
2022/04/09 07:44:12;;;;;;;;;;;18.30;52.50;;;;;;5023735;28;20371;-57
2022/04/09 07:46:37;;;;;;;;;;;18.30;52.50;;;;;;5018099;28;19914;-56
2022/04/09 07:49:03;;;;;;;;;;;18.30;52.90;;;;;;5022844;28;20729;-56
2022/04/09 07:51:28;;;;;;;;;;;18.30;53.20;;;;;;5022653;28;20020;-55
2022/04/09 07:53:54;;;;;;;;;;;18.40;53.30;;;;;;5022842;28;19921;-56
2022/04/09 07:56:19;;;;;;;;;;;18.40;53.20;;;;;;5022525;28;19913;-57
2022/04/09 07:58:44;;;;;;;;;;;18.40;52.90;;;;;;5022794;28;19940;-57
2022/04/09 08:01:10;;;;;;;;;;;18.40;52.70;;;;;;5023223;28;19920;-57
2022/04/09 08:03:35;;;;;;;;;;;18.40;52.50;;;;;;5022642;28;20389;-55
2022/04/09 08:06:01;;;;;;;;;;;18.40;52.40;;;;;;5022894;28;19921;-57
2022/04/09 08:08:26;;;;;;;;;;;18.40;52.60;;;;;;5022465;28;20520;-53
2022/04/09 08:10:52;;;;;;;;;;;18.40;52.50;;;;;;5022400;28;19920;-55
2022/04/09 08:13:18;;;;;;;;;;;18.40;52.70;;;;;;5022936;28;19914;-56
2022/04/09 08:15:44;;;;;;;;;;;18.40;53.10;;;;;;5021504;28;19924;-55
2022/04/09 08:18:10;;;;;;;;;;;18.40;53.60;;;;;;5023145;28;19917;-55
2022/04/09 08:20:36;;;;;;;;;;;18.40;53.80;;;;;;5022070;28;19914;-55
2022/04/09 08:23:02;;;;;;;;;;;18.40;53.90;;;;;;5022557;28;19920;-55
2022/04/09 08:25:27;;;;;;;;;;;18.40;53.80;;;;;;5022244;28;19917;-54
2022/04/09 08:27:53;;;;;;;;;;;18.50;53.80;;;;;;5020839;28;19917;-55
2022/04/09 08:30:19;;;;;;;;;;;18.50;53.60;;;;;;5017903;28;19913;-55
2022/04/09 08:32:45;;;;;;;;;;;18.60;52.80;;;;;;5002885;28;20000;-56
2022/04/09 08:35:10;;;;;;;;;;;18.60;52.60;;;;;;5003356;28;20370;-55
2022/04/09 08:37:35;;;;;;;;;;;18.70;52.60;;;;;;5002310;28;19913;-57
2022/04/09 08:40:02;;;;;;;;;;;19.10;54.00;;;;;;4999335;28;19953;-58
2022/04/09 08:42:28;;;;;;;;;;;19.60;54.70;;;;;;5015142;28;19928;-57
2022/04/09 08:44:53;;;;;;;;;;;19.30;47.70;;;;;;5001311;28;19926;-57
2022/04/09 08:47:19;;;;;;;;;;;19.20;50.80;;;;;;5001079;28;19917;-58
2022/04/09 08:49:46;;;;;;;;;;;19.30;50.80;;;;;;5003589;28;20309;-58
2022/04/09 08:52:11;;;;;;;;;;;19.60;52.50;;;;;;5003198;28;19914;-54
2022/04/09 08:54:37;;;;;;;;;;;19.90;56.30;;;;;;5002343;28;19948;-58
2022/04/09 08:57:02;;;;;;;;;;;20.20;51.40;;;;;;5001983;28;19945;-56
2022/04/09 08:59:28;;;;;;;;;;;20.20;50.60;;;;;;4999733;28;19921;-61
2022/04/09 09:01:53;;;;;;;;;;;20.10;50.90;;;;;;4999052;28;20282;-61
2022/04/09 09:04:19;;;;;;;;;;;20.00;50.10;;;;;;5001305;28;19921;-58
2022/04/09 09:06:45;;;;;;;;;;;20.10;49.70;;;;;;5001550;28;20338;-57
2022/04/09 09:09:29;;;;;;;;;;;20.10;49.70;;;;;;5001048;28;19914;-58
2022/04/09 09:11:55;;;;;;;;;;;20.10;49.30;;;;;;5005536;28;19914;-58
2022/04/09 09:14:23;;;;;;;;;;;20.00;49.30;;;;;;5000452;28;19914;-57
2022/04/09 09:16:49;;;;;;;;;;;19.90;49.30;;;;;;4999689;28;19914;-57
2022/04/09 09:19:14;;;;;;;;;;;19.80;49.00;;;;;;5001362;28;20425;-59
2022/04/09 09:21:50;;;;;;;;;;;19.80;49.10;;;;;;5000118;28;19971;-59
2022/04/09 09:24:16;;;;;;;;;;;19.80;49.30;;;;;;5019247;28;22083;-57
2022/04/09 09:26:42;;;;;;;;;;;19.50;46.30;;;;;;5021553;28;20003;-58
2022/04/09 09:29:08;;;;;;;;;;;19.30;47.50;;;;;;5020330;28;19951;-56
2022/04/09 09:31:40;;;;;;;;;;;19.50;48.10;;;;;;5019981;28;19928;-57
2022/04/09 09:34:12;;;;;;;;;;;19.60;48.20;;;;;;5021076;28;20000;-56
2022/04/09 09:36:40;;;;;;;;;;;19.70;48.20;;;;;;5021088;28;19940;-57
2022/04/09 09:39:06;;;;;;;;;;;19.70;48.20;;;;;;5020321;28;20334;-58
2022/04/09 09:41:31;;;;;;;;;;;19.80;48.40;;;;;;5021178;28;19944;-57
2022/04/09 09:44:00;;;;;;;;;;;19.80;48.50;;;;;;5020433;28;19920;-57
2022/04/09 09:46:26;;;;;;;;;;;19.70;48.50;;;;;;5019211;28;19917;-58
2022/04/09 09:48:51;;;;;;;;;;;19.80;48.70;;;;;;5019641;28;19919;-58
2022/04/09 09:51:21;;;;;;;;;;;19.70;48.80;;;;;;5019599;28;19957;-56
2022/04/09 09:53:46;;;;;;;;;;;19.70;48.90;;;;;;5019266;28;19920;-57
2022/04/09 09:56:12;;;;;;;;;;;19.70;49.00;;;;;;5019615;28;20162;-58
2022/04/09 09:58:38;;;;;;;;;;;19.70;49.00;;;;;;5018809;28;19913;-57
2022/04/09 10:01:03;;;;;;;;;;;19.70;49.10;;;;;;5018327;28;19921;-57
2022/04/09 10:03:29;;;;;;;;;;;19.80;49.20;;;;;;5019464;28;19920;-57
2022/04/09 10:05:54;;;;;;;;;;;19.80;49.20;;;;;;5020498;28;19921;-57
2022/04/09 10:08:20;;;;;;;;;;;19.70;49.10;;;;;;5020092;28;20436;-57
2022/04/09 10:10:49;;;;;;;;;;;19.80;48.90;;;;;;5020021;28;19971;-58
2022/04/09 10:13:18;;;;;;;;;;;20.00;48.30;;;;;;5020058;28;19936;-57
2022/04/09 10:15:44;;;;;;;;;;;20.20;47.50;;;;;;5019718;28;19917;-55
2022/04/09 10:18:09;;;;;;;;;;;20.30;46.50;;;;;;5019005;28;20286;-58
2022/04/09 10:20:35;;;;;;;;;;;20.50;46.10;;;;;;5019289;28;19913;-58
2022/04/09 10:23:01;;;;;;;;;;;20.50;46.00;;;;;;5019400;28;20331;-58
2022/04/09 10:25:28;;;;;;;;;;;20.60;46.10;;;;;;5017970;28;19925;-57
2022/04/09 10:27:58;;;;;;;;;;;20.60;46.10;;;;;;5018401;28;19917;-56
2022/04/09 10:30:24;;;;;;;;;;;20.70;45.90;;;;;;5026893;28;19923;-57
2022/04/09 10:32:52;;;;;;;;;;;20.80;46.40;;;;;;5019918;28;19913;-56
2022/04/09 10:35:31;;;;;;;;;;;20.70;45.80;;;;;;5019798;28;19913;-58
2022/04/09 10:38:14;;;;;;;;;;;20.70;45.90;;;;;;5017763;28;19917;-57
2022/04/09 10:40:43;;;;;;;;;;;20.70;46.00;;;;;;5018756;28;19994;-58
2022/04/09 10:43:08;;;;;;;;;;;20.60;46.10;;;;;;5022590;28;19913;-58
2022/04/09 10:45:52;;;;;;;;;;;20.60;46.10;;;;;;5016975;28;20023;-57
2022/04/09 10:48:18;;;;;;;;;;;20.50;46.20;;;;;;4996061;28;19953;-58
2022/04/09 10:50:59;;;;;;;;;;;20.40;46.30;;;;;;5012648;28;19961;-58
2022/04/09 10:53:29;;;;;;;;;;;20.40;46.30;;;;;;5015052;28;20482;-58
2022/04/09 10:56:10;;;;;;;;;;;20.20;46.30;;;;;;5017428;28;20569;-56
2022/04/09 10:59:16;;;;;;;;;;;20.20;46.50;;;;;;5014178;28;20032;-58
2022/04/09 11:01:51;;;;;;;;;;;20.20;46.60;;;;;;4955469;28;19914;-57
2022/04/09 11:04:25;;;;;;;;;;;20.10;46.70;;;;;;4956769;28;19914;-56
2022/04/09 11:07:06;;;;;;;;;;;20.10;46.80;;;;;;4990324;28;20008;-57
2022/04/09 11:09:40;;;;;;;;;;;20.10;46.90;;;;;;5018714;28;19927;-55
2022/04/09 11:12:06;;;;;;;;;;;20.10;47.10;;;;;;5013021;28;19917;-57
2022/04/09 11:14:40;;;;;;;;;;;20.10;47.20;;;;;;5019925;28;19922;-57
2022/04/09 11:17:15;;;;;;;;;;;20.10;47.30;;;;;;5014880;28;19924;-57
2022/04/09 11:19:42;;;;;;;;;;;20.10;47.40;;;;;;5019009;28;20396;-57
2022/04/09 11:22:08;;;;;;;;;;;20.10;47.70;;;;;;5016986;28;19913;-56
2022/04/09 11:24:37;;;;;;;;;;;20.10;47.90;;;;;;5020933;28;20157;-57
2022/04/09 11:27:03;;;;;;;;;;;20.20;48.20;;;;;;5014331;28;19914;-56
2022/04/09 11:29:32;;;;;;;;;;;20.20;48.20;;;;;;5018380;28;19959;-59
2022/04/09 11:31:58;;;;;;;;;;;20.30;48.20;;;;;;5015051;28;20358;-58
2022/04/09 11:34:25;;;;;;;;;;;20.30;48.40;;;;;;5017915;28;19924;-60
2022/04/09 11:36:52;;;;;;;;;;;20.30;48.70;;;;;;5014549;28;19963;-61
2022/04/09 11:39:17;;;;;;;;;;;20.40;49.00;;;;;;5018588;28;20027;-61
2022/04/09 11:41:46;;;;;;;;;;;20.40;49.20;;;;;;5015130;28;19913;-59
2022/04/09 11:44:25;;;;;;;;;;;20.30;49.00;;;;;;5018344;28;19968;-57
2022/04/09 11:46:51;;;;;;;;;;;20.20;48.70;;;;;;5013392;28;19914;-59
2022/04/09 11:49:18;;;;;;;;;;;20.20;48.70;;;;;;5016995;28;19988;-57
2022/04/09 11:51:53;;;;;;;;;;;20.10;48.60;;;;;;5014213;28;20363;-59
2022/04/09 11:54:19;;;;;;;;;;;20.10;48.60;;;;;;5017056;28;19971;-58
2022/04/09 11:56:44;;;;;;;;;;;20.10;48.50;;;;;;5013640;28;19914;-58
2022/04/09 11:59:13;;;;;;;;;;;20.10;48.50;;;;;;5018731;28;20386;-60
2022/04/09 12:01:39;;;;;;;;;;;20.00;48.30;;;;;;5015329;28;19913;-59
2022/04/09 12:04:04;;;;;;;;;;;20.10;49.60;;;;;;5016930;28;19982;-60
2022/04/09 12:06:30;;;;;;;;;;;20.10;49.90;;;;;;5016564;28;19924;-60
2022/04/09 12:08:55;;;;;;;;;;;20.00;49.90;;;;;;5017642;28;19920;-58
2022/04/09 12:11:21;;;;;;;;;;;20.00;49.90;;;;;;5003687;28;19913;-56
2022/04/09 12:13:46;;;;;;;;;;;20.00;50.00;;;;;;5012669;28;19917;-58
2022/04/09 12:16:12;;;;;;;;;;;20.00;50.10;;;;;;4998079;28;19921;-56
2022/04/09 12:18:37;;;;;;;;;;;20.00;50.10;;;;;;5020723;28;20362;-54
2022/04/09 12:21:22;;;;;;;;;;;20.00;50.00;;;;;;5002538;28;19913;-56
2022/04/09 12:24:05;;;;;;;;;;;20.00;50.00;;;;;;5015445;28;19917;-59
2022/04/09 12:26:30;;;;;;;;;;;20.00;49.90;;;;;;5009328;28;20020;-57
2022/04/09 12:29:06;;;;;;;;;;;20.00;49.80;;;;;;5035017;28;19913;-60
2022/04/09 12:31:32;;;;;;;;;;;20.00;49.70;;;;;;5010415;28;19977;-60
2022/04/09 12:33:58;;;;;;;;;;;20.00;49.70;;;;;;5035094;28;20289;-59
2022/04/09 12:36:23;;;;;;;;;;;19.90;49.50;;;;;;5008520;28;19917;-60
2022/04/09 12:38:48;;;;;;;;;;;19.90;49.60;;;;;;5053014;22;20154;-57
2022/04/09 12:41:14;;;;;;;;;;;19.80;49.60;;;;;;5042532;28;19913;-55
2022/04/09 12:43:41;;;;;;;;;;;19.80;49.60;;;;;;5042289;28;19920;-57
2022/04/09 12:46:06;;;;;;;;;;;19.80;49.70;;;;;;5041654;28;19950;-56
2022/04/09 12:48:38;;;;;;;;;;;19.70;50.20;;;;;;5041514;28;19965;-56
2022/04/09 12:51:04;;;;;;;;;;;19.70;49.50;;;;;;5042286;28;19923;-55
2022/04/09 12:53:29;;;;;;;;;;;19.70;49.50;;;;;;5041446;28;20025;-57
2022/04/09 12:55:55;;;;;;;;;;;19.70;49.50;;;;;;5041022;28;19941;-56
2022/04/09 12:58:20;;;;;;;;;;;19.70;49.40;;;;;;5041209;28;19967;-58
2022/04/09 13:00:46;;;;;;;;;;;19.70;49.40;;;;;;5040591;28;20396;-56
2022/04/09 13:03:13;;;;;;;;;;;19.70;49.40;;;;;;5041456;28;20413;-56
2022/04/09 13:05:41;;;;;;;;;;;19.70;49.40;;;;;;5040694;28;19924;-60
2022/04/09 13:08:06;;;;;;;;;;;19.70;49.30;;;;;;5040798;28;20038;-55
2022/04/09 13:10:33;;;;;;;;;;;19.70;49.30;;;;;;5041379;28;20090;-57
2022/04/09 13:12:58;;;;;;;;;;;19.70;49.30;;;;;;5041606;28;19913;-57
2022/04/09 13:15:24;;;;;;;;;;;19.70;49.50;;;;;;5039841;28;20717;-58
2022/04/09 13:17:49;;;;;;;;;;;19.70;49.60;;;;;;5039012;28;19913;-56
2022/04/09 13:20:15;;;;;;;;;;;19.70;49.60;;;;;;5038605;28;19921;-61
2022/04/09 13:22:40;;;;;;;;;;;19.70;50.30;;;;;;5038677;28;19917;-56
2022/04/09 13:25:06;;;;;;;;;;;19.60;49.70;;;;;;5039646;28;19939;-57
2022/04/09 13:27:31;;;;;;;;;;;19.70;49.80;;;;;;5040854;28;19920;-58
2022/04/09 13:29:57;;;;;;;;;;;19.70;49.90;;;;;;5040461;28;19920;-57
2022/04/09 13:32:22;;;;;;;;;;;19.70;50.00;;;;;;5039944;28;20378;-56
2022/04/09 13:34:47;;;;;;;;;;;19.60;49.90;;;;;;5039355;28;19920;-56
2022/04/09 13:37:13;;;;;;;;;;;19.70;50.10;;;;;;5040960;28;19913;-58
2022/04/09 13:39:38;;;;;;;;;;;19.70;50.10;;;;;;5040848;28;20305;-57
2022/04/09 13:42:06;;;;;;;;;;;19.70;50.40;;;;;;5040791;28;19913;-53
2022/04/09 13:44:32;;;;;;;;;;;19.70;50.40;;;;;;5040627;28;19917;-55
2022/04/09 13:46:57;;;;;;;;;;;19.70;50.30;;;;;;5039431;28;19920;-55
2022/04/09 13:49:23;;;;;;;;;;;19.70;50.40;;;;;;5038875;28;19925;-55
2022/04/09 13:51:48;;;;;;;;;;;19.70;50.30;;;;;;5040935;28;19921;-55
2022/04/09 13:54:13;;;;;;;;;;;19.70;50.30;;;;;;5038724;28;20316;-55
2022/04/09 13:56:39;;;;;;;;;;;19.70;50.30;;;;;;5041849;28;19920;-55
2022/04/09 13:59:04;;;;;;;;;;;19.70;50.40;;;;;;5040786;28;19912;-57
2022/04/09 14:01:30;;;;;;;;;;;19.70;50.40;;;;;;5042053;28;20378;-61
2022/04/09 14:03:57;;;;;;;;;;;19.70;50.40;;;;;;5039615;28;19912;-58
2022/04/09 14:06:22;;;;;;;;;;;19.70;50.40;;;;;;5040017;28;19917;-57
2022/04/09 14:08:48;;;;;;;;;;;19.70;51.10;;;;;;5039368;28;19920;-54
2022/04/09 14:11:14;;;;;;;;;;;19.80;51.80;;;;;;5040476;28;19912;-54
2022/04/09 14:13:39;;;;;;;;;;;19.80;52.00;;;;;;5041041;28;19917;-56
2022/04/09 14:16:05;;;;;;;;;;;19.80;52.10;;;;;;5039830;28;19999;-57